createdAt,value
2018-01-23T00:02:18.844Z,54.95
2018-01-23T00:04:47.268Z,54.79
2018-01-23T00:07:15.697Z,54.65
2018-01-23T00:09:44.089Z,54.55
2018-01-23T00:12:12.545Z,54.36
2018-01-23T00:14:40.996Z,54.75
2018-01-23T00:17:09.392Z,54.33
2018-01-23T00:19:37.816Z,54.74
2018-01-23T00:22:06.204Z,54.70
2018-01-23T00:24:34.669Z,54.21
2018-01-23T00:27:03.107Z,54.34
2018-01-23T00:29:31.532Z,54.14
2018-01-23T00:31:59.968Z,54.00
2018-01-23T00:34:28.392Z,54.18
2018-01-23T00:36:56.788Z,54.12
2018-01-23T00:39:25.236Z,54.41
2018-01-23T00:41:53.648Z,54.24
2018-01-23T00:44:22.092Z,54.01
2018-01-23T00:46:50.496Z,54.13
2018-01-23T00:49:18.967Z,54.47
2018-01-23T00:51:47.356Z,54.01
2018-01-23T00:54:15.876Z,53.52
2018-01-23T00:56:44.284Z,53.80
2018-01-23T00:59:12.730Z,53.75
2018-01-23T01:01:41.153Z,53.44
2018-01-23T01:04:09.540Z,53.49
2018-01-23T01:06:38.004Z,53.29
2018-01-23T01:09:06.433Z,53.36
2018-01-23T01:11:34.867Z,53.16
2018-01-23T01:14:03.296Z,53.19
2018-01-23T01:16:31.704Z,53.20
2018-01-23T01:19:00.131Z,53.41
2018-01-23T01:21:28.572Z,52.76
2018-01-23T01:23:57.091Z,53.01
2018-01-23T01:26:25.496Z,52.99
2018-01-23T01:28:53.985Z,52.93
2018-01-23T01:31:22.430Z,53.14
2018-01-23T01:33:50.888Z,52.56
2018-01-23T01:36:19.395Z,52.47
2018-01-23T01:38:47.836Z,52.79
2018-01-23T01:41:16.268Z,52.84
2018-01-23T01:43:44.721Z,53.08
2018-01-23T01:46:13.153Z,53.34
2018-01-23T01:48:53.500Z,52.99
2018-01-23T01:51:21.972Z,53.62
2018-01-23T01:53:50.373Z,53.52
2018-01-23T01:56:18.811Z,53.58
2018-01-23T01:58:47.265Z,53.54
2018-01-23T02:01:15.698Z,53.85
2018-01-23T02:03:44.153Z,53.41
2018-01-23T02:06:12.659Z,53.40
2018-01-23T02:08:41.093Z,53.76
2018-01-23T02:11:09.528Z,53.39
2018-01-23T02:13:38.019Z,53.71
2018-01-23T02:16:06.425Z,53.73
2018-01-23T02:18:34.941Z,53.69
2018-01-23T02:21:03.348Z,53.58
2018-01-23T02:23:31.760Z,53.55
2018-01-23T02:26:00.203Z,53.67
2018-01-23T02:28:28.660Z,53.97
2018-01-23T02:30:57.089Z,53.95
2018-01-23T02:33:25.541Z,53.96
2018-01-23T02:35:54.018Z,53.80
2018-01-23T02:38:22.525Z,53.56
2018-01-23T02:40:51.100Z,53.79
2018-01-23T02:43:19.504Z,53.83
2018-01-23T02:45:47.923Z,54.01
2018-01-23T02:48:16.365Z,53.83
2018-01-23T02:50:44.800Z,53.51
2018-01-23T02:53:13.254Z,53.71
2018-01-23T02:55:41.664Z,54.10
2018-01-23T02:58:10.153Z,53.72
2018-01-23T03:00:38.596Z,54.61
2018-01-23T03:03:07.129Z,54.06
2018-01-23T03:05:35.617Z,54.34
2018-01-23T03:08:04.157Z,53.69
2018-01-23T03:10:32.653Z,54.55
2018-01-23T03:13:01.050Z,54.42
2018-01-23T03:15:29.537Z,54.25
2018-01-23T03:17:57.955Z,54.24
2018-01-23T03:20:26.457Z,54.55
2018-01-23T03:22:54.909Z,54.77
2018-01-23T03:25:23.304Z,54.41
2018-01-23T03:27:51.812Z,54.31
2018-01-23T03:30:20.213Z,54.71
2018-01-23T03:32:48.657Z,54.53
2018-01-23T03:35:17.065Z,54.58
2018-01-23T03:37:45.500Z,54.09
2018-01-23T03:40:13.925Z,54.69
2018-01-23T03:42:42.361Z,55.11
2018-01-23T03:45:10.845Z,54.92
2018-01-23T03:47:39.343Z,54.75
2018-01-23T03:50:07.781Z,55.07
2018-01-23T03:52:36.212Z,54.91
2018-01-23T03:55:04.681Z,54.97
2018-01-23T03:57:33.133Z,54.92
2018-01-23T04:00:01.645Z,54.71
2018-01-23T04:02:30.200Z,54.92
2018-01-23T04:04:58.622Z,54.84
2018-01-23T04:07:27.023Z,55.01
2018-01-23T04:09:55.481Z,55.05
2018-01-23T04:12:23.885Z,55.10
2018-01-23T04:14:52.341Z,54.69
2018-01-23T04:17:20.843Z,54.69
2018-01-23T04:19:49.246Z,54.49
2018-01-23T04:22:17.718Z,54.62
2018-01-23T04:24:46.195Z,54.59
2018-01-23T04:27:14.636Z,54.55
2018-01-23T04:29:43.145Z,54.54
2018-01-23T04:32:11.602Z,54.42
2018-01-23T04:34:40.013Z,54.56
2018-01-23T04:37:08.475Z,54.82
2018-01-23T04:39:36.881Z,54.92
2018-01-23T04:42:05.316Z,55.03
2018-01-23T04:44:33.728Z,55.00
2018-01-23T04:47:02.173Z,54.77
2018-01-23T04:49:30.704Z,54.78
2018-01-23T04:51:59.112Z,55.02
2018-01-23T04:54:27.516Z,55.04
2018-01-23T04:56:56.033Z,54.73
2018-01-23T04:59:24.432Z,54.97
2018-01-23T05:01:52.881Z,54.43
2018-01-23T05:04:21.290Z,54.49
2018-01-23T05:06:49.702Z,54.98
2018-01-23T05:09:18.165Z,54.90
2018-01-23T05:11:46.564Z,55.53
2018-01-23T05:14:14.969Z,54.85
2018-01-23T05:16:43.428Z,54.97
2018-01-23T05:19:11.952Z,54.87
2018-01-23T05:21:40.389Z,55.01
2018-01-23T05:24:08.869Z,54.86
2018-01-23T05:26:37.307Z,54.92
2018-01-23T05:29:05.713Z,54.74
2018-01-23T05:31:34.205Z,55.06
2018-01-23T05:34:02.706Z,54.90
2018-01-23T05:36:31.216Z,54.16
2018-01-23T05:38:59.721Z,54.56
2018-01-23T05:41:28.178Z,54.87
2018-01-23T05:43:56.670Z,54.73
2018-01-23T05:46:25.126Z,54.40
2018-01-23T05:48:53.629Z,54.07
2018-01-23T05:51:22.129Z,53.89
2018-01-23T05:53:50.549Z,53.82
2018-01-23T05:56:18.992Z,53.61
2018-01-23T05:58:47.404Z,53.58
2018-01-23T06:01:15.893Z,52.99
2018-01-23T06:03:44.297Z,52.96
2018-01-23T06:06:12.736Z,52.98
2018-01-23T06:08:41.259Z,52.43
2018-01-23T06:11:09.765Z,52.39
2018-01-23T06:13:38.365Z,51.88
2018-01-23T06:16:06.842Z,51.75
2018-01-23T06:18:35.279Z,51.53
2018-01-23T06:21:03.711Z,51.45
2018-01-23T06:23:32.148Z,51.26
2018-01-23T06:26:00.579Z,51.19
2018-01-23T06:28:29.091Z,51.25
2018-01-23T06:30:57.996Z,51.09
2018-01-23T06:33:28.132Z,51.13
2018-01-23T06:35:56.556Z,50.91
2018-01-23T06:38:26.231Z,51.20
2018-01-23T06:40:55.024Z,51.29
2018-01-23T06:43:23.421Z,51.17
2018-01-23T06:45:51.824Z,50.96
2018-01-23T06:48:20.293Z,51.00
2018-01-23T06:50:48.706Z,51.26
2018-01-23T06:53:17.146Z,51.30
2018-01-23T06:55:45.593Z,51.38
2018-01-23T06:58:14.128Z,52.65
2018-01-23T07:00:42.578Z,54.33
2018-01-23T07:03:11.007Z,55.09
2018-01-23T07:05:39.532Z,54.60
2018-01-23T07:08:07.998Z,54.40
2018-01-23T07:10:36.450Z,53.99
2018-01-23T07:13:04.864Z,53.53
2018-01-23T07:15:33.332Z,53.47
2018-01-23T07:18:01.741Z,53.06
2018-01-23T07:20:30.176Z,53.06
2018-01-23T07:22:58.616Z,53.07
2018-01-23T07:25:27.060Z,52.57
2018-01-23T07:27:55.558Z,53.19
2018-01-23T07:30:24.004Z,53.71
2018-01-23T07:32:52.452Z,53.07
2018-01-23T07:35:20.933Z,52.81
2018-01-23T07:37:49.505Z,52.81
2018-01-23T07:40:18.023Z,53.14
2018-01-23T07:42:47.214Z,53.66
2018-01-23T07:45:15.676Z,53.83
2018-01-23T07:47:44.132Z,53.39
2018-01-23T07:50:12.643Z,53.60
2018-01-23T07:52:41.058Z,53.19
2018-01-23T07:55:09.571Z,53.26
2018-01-23T07:57:37.977Z,52.84
2018-01-23T08:00:06.440Z,52.54
2018-01-23T08:02:34.967Z,52.44
2018-01-23T08:05:03.501Z,52.35
2018-01-23T08:07:32.016Z,51.61
2018-01-23T08:10:00.441Z,51.23
2018-01-23T08:12:28.922Z,51.05
2018-01-23T08:14:57.335Z,50.61
2018-01-23T08:17:25.788Z,50.35
2018-01-23T08:19:54.261Z,50.30
2018-01-23T08:22:22.781Z,50.48
2018-01-23T08:24:51.257Z,49.62
2018-01-23T08:27:19.724Z,49.81
2018-01-23T08:29:48.326Z,49.46
2018-01-23T08:32:16.822Z,49.47
2018-01-23T08:34:45.335Z,48.88
2018-01-23T08:37:13.736Z,48.48
2018-01-23T08:39:42.161Z,48.49
2018-01-23T08:42:10.673Z,47.87
2018-01-23T08:44:39.964Z,48.11
2018-01-23T08:47:08.418Z,48.21
2018-01-23T08:49:36.862Z,47.90
2018-01-23T08:52:05.323Z,47.90
2018-01-23T08:54:33.791Z,47.73
2018-01-23T08:57:02.314Z,47.62
2018-01-23T08:59:30.854Z,47.71
2018-01-23T09:01:59.261Z,46.93
2018-01-23T09:04:27.741Z,47.69
2018-01-23T09:07:00.349Z,47.71
2018-01-23T09:09:28.816Z,47.49
2018-01-23T09:11:57.253Z,47.61
2018-01-23T09:14:25.665Z,47.21
2018-01-23T09:16:54.114Z,46.84
2018-01-23T09:19:22.525Z,47.14
2018-01-23T09:21:50.983Z,47.12
2018-01-23T09:24:19.459Z,45.82
2018-01-23T09:26:47.933Z,46.42
2018-01-23T09:29:16.313Z,46.46
2018-01-23T09:31:44.727Z,46.62
2018-01-23T09:34:13.174Z,46.45
2018-01-23T09:36:41.616Z,46.18
2018-01-23T09:39:10.200Z,45.68
2018-01-23T09:41:38.674Z,44.53
2018-01-23T09:44:07.127Z,45.00
2018-01-23T09:46:35.546Z,44.30
2018-01-23T09:49:04.007Z,45.32
2018-01-23T09:51:32.481Z,45.33
2018-01-23T09:54:00.936Z,44.05
2018-01-23T09:56:29.392Z,43.96
2018-01-23T09:58:57.811Z,44.06
2018-01-23T10:01:26.314Z,43.69
2018-01-23T10:03:54.789Z,43.72
2018-01-23T10:06:23.243Z,42.54
2018-01-23T10:08:52.235Z,42.42
2018-01-23T10:11:20.705Z,41.81
2018-01-23T10:13:49.173Z,42.67
2018-01-23T10:16:17.809Z,40.86
2018-01-23T10:18:46.324Z,40.85
2018-01-23T10:21:14.937Z,41.67
2018-01-23T10:23:43.479Z,41.67
2018-01-23T10:26:11.947Z,41.09
2018-01-23T10:28:40.517Z,40.01
2018-01-23T10:31:08.965Z,41.15
2018-01-23T10:33:37.454Z,41.33
2018-01-23T10:36:05.880Z,41.53
2018-01-23T10:38:34.320Z,40.90
2018-01-23T10:41:02.730Z,41.26
2018-01-23T10:43:31.182Z,39.84
2018-01-23T10:45:59.671Z,41.09
2018-01-23T10:48:28.147Z,40.62
2018-01-23T10:50:56.559Z,38.90
2018-01-23T10:53:24.970Z,39.95
2018-01-23T10:55:53.458Z,40.54
2018-01-23T10:58:21.969Z,39.04
2018-01-23T11:00:56.069Z,40.25
2018-01-23T11:03:24.593Z,39.01
2018-01-23T11:05:53.008Z,38.84
2018-01-23T11:08:21.532Z,39.95
2018-01-23T11:10:49.941Z,39.70
2018-01-23T11:13:18.398Z,39.04
2018-01-23T11:15:46.911Z,38.46
2018-01-23T11:18:15.331Z,38.51
2018-01-23T11:20:43.878Z,38.49
2018-01-23T11:23:12.871Z,39.79
2018-01-23T11:25:41.444Z,38.86
2018-01-23T11:28:09.857Z,39.06
2018-01-23T11:30:38.283Z,39.27
2018-01-23T11:33:06.800Z,38.81
2018-01-23T11:35:35.263Z,39.29
2018-01-23T11:38:03.742Z,38.43
2018-01-23T11:40:32.165Z,38.51
2018-01-23T11:43:00.613Z,38.68
2018-01-23T11:45:29.069Z,38.73
2018-01-23T11:47:57.564Z,38.04
2018-01-23T11:50:26.086Z,38.79
2018-01-23T11:52:54.644Z,38.40
2018-01-23T11:55:23.156Z,39.38
2018-01-23T11:57:51.625Z,39.70
2018-01-23T12:00:20.146Z,39.48
2018-01-23T12:02:48.607Z,39.23
2018-01-23T12:05:17.245Z,38.79
2018-01-23T12:07:45.970Z,39.09
2018-01-23T12:10:14.507Z,39.11
2018-01-23T12:12:43.051Z,38.73
2018-01-23T12:15:11.532Z,38.83
2018-01-23T12:17:40.075Z,39.11
2018-01-23T12:20:08.606Z,39.34
2018-01-23T12:22:37.259Z,39.65
2018-01-23T12:25:05.705Z,39.57
2018-01-23T12:27:34.172Z,39.43
2018-01-23T12:30:02.602Z,39.37
2018-01-23T12:32:31.019Z,39.50
2018-01-23T12:34:59.473Z,39.24
2018-01-23T12:37:27.941Z,38.39
2018-01-23T12:39:56.449Z,38.98
2018-01-23T12:42:24.856Z,39.62
2018-01-23T12:44:53.312Z,39.67
2018-01-23T12:47:21.913Z,39.48
2018-01-23T12:49:50.369Z,38.65
2018-01-23T12:52:18.880Z,38.89
2018-01-23T12:54:47.293Z,39.24
2018-01-23T12:57:15.807Z,39.20
2018-01-23T12:59:44.268Z,39.60
2018-01-23T13:02:12.694Z,38.99
2018-01-23T13:04:41.199Z,39.69
2018-01-23T13:07:09.629Z,39.75
2018-01-23T13:09:38.069Z,39.78
2018-01-23T13:12:06.483Z,40.35
2018-01-23T13:14:34.901Z,39.95
2018-01-23T13:17:03.320Z,39.99
2018-01-23T13:19:31.762Z,39.86
2018-01-23T13:22:00.235Z,39.89
2018-01-23T13:24:28.811Z,39.83
2018-01-23T13:26:57.252Z,40.00
2018-01-23T13:29:25.685Z,40.15
2018-01-23T13:31:54.125Z,39.91
2018-01-23T13:34:22.629Z,40.10
2018-01-23T13:36:51.099Z,40.27
2018-01-23T13:39:19.508Z,40.24
2018-01-23T13:41:48.020Z,39.94
2018-01-23T13:44:16.521Z,40.69
2018-01-23T13:46:44.993Z,40.47
2018-01-23T13:49:13.463Z,39.90
2018-01-23T13:51:41.943Z,40.68
2018-01-23T13:54:10.455Z,40.52
2018-01-23T13:56:38.952Z,40.54
2018-01-23T13:59:07.425Z,40.59
2018-01-23T14:01:35.898Z,40.86
2018-01-23T14:04:04.520Z,40.69
2018-01-23T14:06:33.006Z,40.72
2018-01-23T14:09:01.510Z,40.74
2018-01-23T14:11:30.096Z,40.68
2018-01-23T14:13:58.557Z,40.96
2018-01-23T14:16:27.035Z,40.93
2018-01-23T14:18:55.587Z,41.13
2018-01-23T14:21:23.992Z,41.14
2018-01-23T14:23:52.488Z,41.06
2018-01-23T14:26:21.006Z,41.22
2018-01-23T14:28:49.442Z,40.97
2018-01-23T14:31:17.987Z,41.01
2018-01-23T14:33:46.456Z,41.35
2018-01-23T14:36:15.027Z,41.47
2018-01-23T14:38:43.520Z,41.16
2018-01-23T14:41:11.924Z,41.48
2018-01-23T14:43:40.499Z,41.57
2018-01-23T14:46:08.959Z,41.56
2018-01-23T14:48:37.443Z,41.73
2018-01-23T14:51:05.937Z,41.94
2018-01-23T14:53:34.380Z,42.18
2018-01-23T14:56:02.859Z,42.17
2018-01-23T14:58:31.389Z,42.13
2018-01-23T15:00:59.878Z,42.29
2018-01-23T15:03:28.341Z,42.33
2018-01-23T15:05:56.759Z,42.47
2018-01-23T15:08:25.246Z,42.60
2018-01-23T15:10:53.790Z,42.60
2018-01-23T15:13:22.345Z,42.57
2018-01-23T15:15:50.752Z,42.77
2018-01-23T15:18:19.241Z,42.84
2018-01-23T15:20:47.753Z,43.02
2018-01-23T15:23:16.232Z,43.44
2018-01-23T15:25:44.641Z,43.23
2018-01-23T15:28:13.152Z,43.76
2018-01-23T15:30:41.594Z,43.67
2018-01-23T15:33:10.069Z,43.59
2018-01-23T15:35:38.580Z,43.71
2018-01-23T15:38:07.033Z,43.70
2018-01-23T15:40:35.524Z,43.67
2018-01-23T15:43:03.962Z,43.83
2018-01-23T15:45:32.437Z,44.13
2018-01-23T15:48:00.905Z,44.46
2018-01-23T15:50:29.362Z,44.38
2018-01-23T15:52:57.828Z,44.46
2018-01-23T15:55:26.301Z,44.89
2018-01-23T15:57:54.753Z,44.58
2018-01-23T16:00:23.188Z,44.74
2018-01-23T16:02:51.600Z,44.97
2018-01-23T16:05:20.726Z,45.25
2018-01-23T16:07:49.190Z,45.42
2018-01-23T16:10:17.687Z,45.99
2018-01-23T16:12:46.103Z,47.81
2018-01-23T16:15:14.560Z,47.93
2018-01-23T16:17:43.010Z,48.52
2018-01-23T16:20:11.506Z,49.30
2018-01-23T16:22:39.893Z,49.11
2018-01-23T16:25:08.362Z,50.04
2018-01-23T16:27:36.768Z,50.12
2018-01-23T16:30:05.211Z,49.56
2018-01-23T16:32:33.661Z,49.43
2018-01-23T16:35:02.131Z,49.39
2018-01-23T16:37:30.585Z,50.21
2018-01-23T16:39:59.087Z,49.36
2018-01-23T16:42:27.553Z,49.82
2018-01-23T16:44:56.063Z,50.04
2018-01-23T16:47:24.577Z,50.40
2018-01-23T16:49:53.041Z,50.77
2018-01-23T16:52:21.473Z,51.44
2018-01-23T16:54:49.936Z,51.71
2018-01-23T16:57:18.348Z,51.29
2018-01-23T16:59:46.859Z,51.22
2018-01-23T17:02:15.337Z,51.79
2018-01-23T17:04:43.777Z,51.45
2018-01-23T17:07:12.277Z,51.85
2018-01-23T17:09:40.695Z,51.70
2018-01-23T17:12:09.151Z,51.32
2018-01-23T17:14:37.552Z,51.28
2018-01-23T17:17:05.992Z,51.60
2018-01-23T17:19:34.439Z,51.72
2018-01-23T17:22:02.928Z,52.26
2018-01-23T17:24:31.389Z,51.77
2018-01-23T17:26:59.911Z,51.80
2018-01-23T17:29:28.335Z,51.47
2018-01-23T17:31:56.757Z,51.48
2018-01-23T17:34:25.214Z,51.49
2018-01-23T17:36:53.633Z,51.43
2018-01-23T17:39:22.131Z,51.45
2018-01-23T17:41:50.546Z,50.94
2018-01-23T17:44:19.049Z,51.15
2018-01-23T17:46:47.504Z,51.62
2018-01-23T17:49:15.936Z,51.53
2018-01-23T17:51:44.388Z,51.72
2018-01-23T17:54:12.818Z,51.49
2018-01-23T17:56:41.318Z,51.62
2018-01-23T17:59:09.812Z,52.37
2018-01-23T18:01:38.311Z,52.20
2018-01-23T18:04:06.838Z,52.15
2018-01-23T18:06:35.264Z,52.25
2018-01-23T18:09:03.729Z,52.54
2018-01-23T18:11:32.395Z,52.94
2018-01-23T18:16:34.260Z,52.02
2018-01-23T18:19:02.692Z,52.20
2018-01-23T18:21:31.185Z,52.01
2018-01-23T18:24:00.818Z,51.99
2018-01-23T18:26:29.326Z,52.28
2018-01-23T18:28:57.821Z,52.37
2018-01-23T18:31:26.332Z,52.60
2018-01-23T18:33:55.009Z,53.23
2018-01-23T18:36:23.545Z,53.01
2018-01-23T18:38:52.102Z,53.21
2018-01-23T18:41:22.195Z,53.55
2018-01-23T18:43:50.612Z,52.90
2018-01-23T18:46:19.675Z,52.83
2018-01-23T18:48:48.137Z,52.49
2018-01-23T18:51:17.653Z,52.09
2018-01-23T18:53:46.057Z,52.35
2018-01-23T18:56:14.599Z,52.11
2018-01-23T18:58:43.118Z,51.61
2018-01-23T19:01:12.149Z,51.55
2018-01-23T19:03:40.600Z,51.56
2018-01-23T19:06:09.055Z,51.65
2018-01-23T19:08:37.452Z,51.91
2018-01-23T19:11:05.893Z,51.64
2018-01-23T19:13:34.334Z,51.40
2018-01-23T19:16:02.725Z,51.31
2018-01-23T19:18:31.175Z,51.18
2018-01-23T19:20:59.572Z,51.09
2018-01-23T19:23:28.053Z,50.96
2018-01-23T19:25:56.449Z,50.74
2018-01-23T19:28:25.522Z,50.73
2018-01-23T19:30:53.948Z,50.80
2018-01-23T19:33:22.372Z,50.87
2018-01-23T19:35:50.820Z,50.88
2018-01-23T19:38:19.261Z,50.80
2018-01-23T19:40:47.731Z,50.78
2018-01-23T19:43:16.194Z,50.78
2018-01-23T19:45:44.603Z,50.87
2018-01-23T19:48:13.057Z,50.62
2018-01-23T19:50:41.474Z,50.72
2018-01-23T19:53:09.887Z,50.69
2018-01-23T19:55:38.329Z,50.73
2018-01-23T19:58:06.830Z,50.42
2018-01-23T20:00:35.274Z,50.52
2018-01-23T20:03:03.668Z,50.52
2018-01-23T20:05:32.241Z,50.72
2018-01-23T20:08:00.676Z,50.40
2018-01-23T20:10:29.076Z,50.68
2018-01-23T20:12:57.502Z,50.90
2018-01-23T20:15:25.904Z,50.62
2018-01-23T20:17:54.363Z,50.45
2018-01-23T20:20:22.819Z,50.49
2018-01-23T20:22:51.247Z,50.31
2018-01-23T20:25:19.670Z,50.05
2018-01-23T20:27:48.157Z,50.01
2018-01-23T20:30:16.561Z,50.14
2018-01-23T20:32:45.057Z,50.09
2018-01-23T20:35:13.445Z,50.09
2018-01-23T20:37:41.837Z,49.94
2018-01-23T20:40:10.256Z,49.95
2018-01-23T20:42:38.669Z,49.84
2018-01-23T20:45:07.161Z,49.73
2018-01-23T20:47:35.601Z,49.66
2018-01-23T20:50:04.030Z,49.68
2018-01-23T20:52:32.472Z,49.80
2018-01-23T20:55:00.898Z,49.89
2018-01-23T20:57:29.345Z,49.86
2018-01-23T20:59:57.757Z,49.90
2018-01-23T21:02:26.157Z,49.76
2018-01-23T21:04:54.563Z,49.92
2018-01-23T21:07:23.021Z,49.92
2018-01-23T21:09:51.453Z,49.85
2018-01-23T21:12:19.929Z,50.09
2018-01-23T21:14:48.360Z,50.76
2018-01-23T21:17:16.788Z,51.24
2018-01-23T21:19:45.176Z,51.03
2018-01-23T21:22:13.635Z,50.86
2018-01-23T21:24:42.096Z,50.88
2018-01-23T21:27:10.504Z,51.21
2018-01-23T21:29:38.896Z,51.17
2018-01-23T21:32:07.349Z,51.38
2018-01-23T21:34:35.775Z,51.43
2018-01-23T21:37:04.184Z,51.61
2018-01-23T21:39:32.677Z,51.34
2018-01-23T21:42:01.103Z,51.78
2018-01-23T21:44:29.565Z,52.26
2018-01-23T21:46:57.998Z,52.84
2018-01-23T21:49:26.457Z,52.37
2018-01-23T21:51:54.919Z,52.41
2018-01-23T21:54:23.321Z,52.70
2018-01-23T21:56:51.830Z,52.57
2018-01-23T21:59:20.229Z,52.76
2018-01-23T22:01:48.689Z,52.70
2018-01-23T22:04:17.112Z,53.30
2018-01-23T22:06:45.569Z,53.45
2018-01-23T22:09:14.033Z,53.39
2018-01-23T22:11:42.497Z,54.11
2018-01-23T22:14:10.932Z,54.38
2018-01-23T22:16:39.341Z,54.35
2018-01-23T22:19:07.794Z,55.21
2018-01-23T22:21:36.262Z,56.10
2018-01-23T22:24:04.721Z,56.46
2018-01-23T22:26:33.105Z,56.26
2018-01-23T22:29:01.501Z,57.82
2018-01-23T22:31:29.938Z,57.32
2018-01-23T22:33:58.352Z,57.26
2018-01-23T22:36:26.784Z,57.31
2018-01-23T22:38:55.247Z,58.28
2018-01-23T22:41:23.731Z,57.52
2018-01-23T22:43:52.233Z,59.74
2018-01-23T22:46:20.665Z,58.12
2018-01-23T22:48:49.088Z,58.60
2018-01-23T22:51:17.524Z,58.75
2018-01-23T22:53:45.916Z,59.29
2018-01-23T22:56:14.390Z,58.50
2018-01-23T22:58:42.818Z,58.89
2018-01-23T23:01:11.269Z,58.33
2018-01-23T23:03:39.770Z,58.14
2018-01-23T23:06:08.239Z,59.63
2018-01-23T23:08:36.649Z,59.16
2018-01-23T23:11:05.085Z,59.52
2018-01-23T23:13:33.531Z,58.28
2018-01-23T23:16:01.994Z,58.17
2018-01-23T23:18:30.458Z,58.93
2018-01-23T23:20:58.860Z,58.91
2018-01-23T23:23:27.284Z,58.18
2018-01-23T23:25:55.676Z,58.24
2018-01-23T23:28:24.169Z,60.75
2018-01-23T23:30:52.582Z,60.33
2018-01-23T23:33:21.121Z,59.81
2018-01-23T23:35:49.553Z,60.54
2018-01-23T23:38:18.003Z,59.12
2018-01-23T23:40:46.417Z,60.11
2018-01-23T23:43:14.816Z,59.41
2018-01-23T23:45:43.271Z,60.33
2018-01-23T23:48:11.748Z,59.04
2018-01-23T23:50:40.157Z,59.83
2018-01-23T23:53:08.622Z,59.66
2018-01-23T23:55:37.129Z,60.64
2018-01-23T23:58:05.529Z,60.31
